Aviation Digital Data Service (ADDS)

Output produced by METARs form (1744 UTC 25 February 2018)
found at http://aviationweather.gov/adds/metars/
 
KUTS 251653Z AUTO 36008KT 10SM -RA FEW031 OVC060 12/11 A3008 RMK AO2 LTG DSNT NE-SE SLP184 P0010 T01170106